sensor_id;sensor_type;location;lat;lon;timestamp;P1;durP1;ratioP1;P2;durP2;ratioP2
32872;SDS011;19224;52.462;16.898;2024-02-28T00:00:24;48.92;;;24.45;;
32872;SDS011;19224;52.462;16.898;2024-02-28T00:02:55;49.03;;;24.32;;
32872;SDS011;19224;52.462;16.898;2024-02-28T00:05:27;45.30;;;24.87;;
32872;SDS011;19224;52.462;16.898;2024-02-28T00:07:59;44.77;;;25.10;;
32872;SDS011;19224;52.462;16.898;2024-02-28T00:10:29;45.65;;;26.00;;
32872;SDS011;19224;52.462;16.898;2024-02-28T00:13:01;44.13;;;24.80;;
32872;SDS011;19224;52.462;16.898;2024-02-28T00:15:38;42.27;;;23.15;;
32872;SDS011;19224;52.462;16.898;2024-02-28T00:18:04;45.48;;;23.32;;
32872;SDS011;19224;52.462;16.898;2024-02-28T00:20:34;43.60;;;23.62;;
32872;SDS011;19224;52.462;16.898;2024-02-28T00:23:05;41.48;;;22.87;;
32872;SDS011;19224;52.462;16.898;2024-02-28T00:25:35;43.95;;;23.20;;
32872;SDS011;19224;52.462;16.898;2024-02-28T00:28:05;41.13;;;23.45;;
32872;SDS011;19224;52.462;16.898;2024-02-28T00:30:36;44.13;;;24.30;;
32872;SDS011;19224;52.462;16.898;2024-02-28T00:33:06;45.63;;;25.55;;
32872;SDS011;19224;52.462;16.898;2024-02-28T00:35:36;48.13;;;25.57;;
32872;SDS011;19224;52.462;16.898;2024-02-28T00:38:09;45.40;;;25.12;;
32872;SDS011;19224;52.462;16.898;2024-02-28T00:40:39;46.00;;;24.27;;
32872;SDS011;19224;52.462;16.898;2024-02-28T00:43:09;44.13;;;24.55;;
32872;SDS011;19224;52.462;16.898;2024-02-28T00:45:40;47.10;;;24.82;;
32872;SDS011;19224;52.462;16.898;2024-02-28T00:48:11;43.17;;;23.30;;
32872;SDS011;19224;52.462;16.898;2024-02-28T00:50:41;42.93;;;24.00;;
32872;SDS011;19224;52.462;16.898;2024-02-28T00:53:12;42.35;;;23.95;;
32872;SDS011;19224;52.462;16.898;2024-02-28T00:55:43;44.60;;;23.60;;
32872;SDS011;19224;52.462;16.898;2024-02-28T00:58:14;44.27;;;24.45;;
32872;SDS011;19224;52.462;16.898;2024-02-28T01:00:44;44.70;;;24.25;;
32872;SDS011;19224;52.462;16.898;2024-02-28T01:03:15;50.03;;;26.35;;
32872;SDS011;19224;52.462;16.898;2024-02-28T01:05:46;51.35;;;25.57;;
32872;SDS011;19224;52.462;16.898;2024-02-28T01:08:18;48.25;;;25.02;;
32872;SDS011;19224;52.462;16.898;2024-02-28T01:10:48;46.25;;;24.37;;
32872;SDS011;19224;52.462;16.898;2024-02-28T01:13:21;46.08;;;25.97;;
32872;SDS011;19224;52.462;16.898;2024-02-28T01:15:51;52.67;;;26.95;;
32872;SDS011;19224;52.462;16.898;2024-02-28T01:18:21;50.88;;;26.25;;
32872;SDS011;19224;52.462;16.898;2024-02-28T01:20:51;48.60;;;24.57;;
32872;SDS011;19224;52.462;16.898;2024-02-28T01:23:22;50.45;;;26.40;;
32872;SDS011;19224;52.462;16.898;2024-02-28T01:25:52;47.60;;;24.63;;
32872;SDS011;19224;52.462;16.898;2024-02-28T01:28:22;49.70;;;24.52;;
32872;SDS011;19224;52.462;16.898;2024-02-28T01:30:53;47.55;;;24.72;;
32872;SDS011;19224;52.462;16.898;2024-02-28T01:33:23;48.00;;;25.70;;
32872;SDS011;19224;52.462;16.898;2024-02-28T01:35:54;53.02;;;25.60;;
32872;SDS011;19224;52.462;16.898;2024-02-28T01:38:25;45.08;;;24.20;;
32872;SDS011;19224;52.462;16.898;2024-02-28T01:40:55;55.17;;;26.23;;
32872;SDS011;19224;52.462;16.898;2024-02-28T01:43:25;53.70;;;25.30;;
32872;SDS011;19224;52.462;16.898;2024-02-28T01:45:56;48.17;;;25.02;;
32872;SDS011;19224;52.462;16.898;2024-02-28T01:48:31;54.25;;;26.12;;
32872;SDS011;19224;52.462;16.898;2024-02-28T01:51:03;48.90;;;24.55;;
32872;SDS011;19224;52.462;16.898;2024-02-28T01:53:35;49.73;;;24.98;;
32872;SDS011;19224;52.462;16.898;2024-02-28T01:56:05;54.30;;;26.60;;
32872;SDS011;19224;52.462;16.898;2024-02-28T01:58:36;54.27;;;26.68;;
32872;SDS011;19224;52.462;16.898;2024-02-28T02:01:07;53.15;;;24.87;;
32872;SDS011;19224;52.462;16.898;2024-02-28T02:03:38;46.85;;;24.18;;
32872;SDS011;19224;52.462;16.898;2024-02-28T02:06:09;52.27;;;25.30;;
32872;SDS011;19224;52.462;16.898;2024-02-28T02:08:40;57.62;;;24.50;;
32872;SDS011;19224;52.462;16.898;2024-02-28T02:11:11;56.45;;;25.92;;
32872;SDS011;19224;52.462;16.898;2024-02-28T02:13:53;57.03;;;24.43;;
32872;SDS011;19224;52.462;16.898;2024-02-28T02:16:23;52.98;;;23.50;;
32872;SDS011;19224;52.462;16.898;2024-02-28T02:18:57;53.87;;;23.92;;
32872;SDS011;19224;52.462;16.898;2024-02-28T02:21:31;56.63;;;24.47;;
32872;SDS011;19224;52.462;16.898;2024-02-28T02:24:11;53.95;;;23.70;;
32872;SDS011;19224;52.462;16.898;2024-02-28T02:26:41;51.45;;;24.30;;
32872;SDS011;19224;52.462;16.898;2024-02-28T02:29:14;51.10;;;22.95;;
32872;SDS011;19224;52.462;16.898;2024-02-28T02:31:44;51.65;;;23.83;;
32872;SDS011;19224;52.462;16.898;2024-02-28T02:34:14;57.62;;;23.95;;
32872;SDS011;19224;52.462;16.898;2024-02-28T02:36:45;54.60;;;24.18;;
32872;SDS011;19224;52.462;16.898;2024-02-28T02:39:15;56.83;;;24.32;;
32872;SDS011;19224;52.462;16.898;2024-02-28T02:41:48;53.55;;;23.07;;
32872;SDS011;19224;52.462;16.898;2024-02-28T02:44:18;55.20;;;23.55;;
32872;SDS011;19224;52.462;16.898;2024-02-28T02:46:48;53.10;;;24.07;;
32872;SDS011;19224;52.462;16.898;2024-02-28T02:49:21;54.15;;;24.40;;
32872;SDS011;19224;52.462;16.898;2024-02-28T02:51:52;57.78;;;23.90;;
32872;SDS011;19224;52.462;16.898;2024-02-28T02:54:22;50.88;;;22.85;;
32872;SDS011;19224;52.462;16.898;2024-02-28T02:56:52;55.88;;;24.37;;
32872;SDS011;19224;52.462;16.898;2024-02-28T02:59:22;54.08;;;23.73;;
32872;SDS011;19224;52.462;16.898;2024-02-28T03:01:53;56.63;;;23.98;;
32872;SDS011;19224;52.462;16.898;2024-02-28T03:04:27;56.00;;;22.25;;
32872;SDS011;19224;52.462;16.898;2024-02-28T03:06:58;48.42;;;21.48;;
32872;SDS011;19224;52.462;16.898;2024-02-28T03:09:28;53.08;;;22.82;;
32872;SDS011;19224;52.462;16.898;2024-02-28T03:11:58;53.87;;;22.52;;
32872;SDS011;19224;52.462;16.898;2024-02-28T03:14:29;52.40;;;22.65;;
32872;SDS011;19224;52.462;16.898;2024-02-28T03:16:59;46.55;;;21.97;;
32872;SDS011;19224;52.462;16.898;2024-02-28T03:19:30;44.90;;;21.40;;
32872;SDS011;19224;52.462;16.898;2024-02-28T03:22:01;47.53;;;22.73;;
32872;SDS011;19224;52.462;16.898;2024-02-28T03:24:32;47.83;;;21.25;;
32872;SDS011;19224;52.462;16.898;2024-02-28T03:27:03;48.38;;;22.90;;
32872;SDS011;19224;52.462;16.898;2024-02-28T03:29:33;51.80;;;23.05;;
32872;SDS011;19224;52.462;16.898;2024-02-28T03:32:04;52.65;;;22.02;;
32872;SDS011;19224;52.462;16.898;2024-02-28T03:34:35;51.35;;;22.70;;
32872;SDS011;19224;52.462;16.898;2024-02-28T03:37:05;48.05;;;21.60;;
32872;SDS011;19224;52.462;16.898;2024-02-28T03:39:35;50.12;;;21.37;;
32872;SDS011;19224;52.462;16.898;2024-02-28T03:42:06;49.05;;;20.30;;
32872;SDS011;19224;52.462;16.898;2024-02-28T03:44:36;45.48;;;20.00;;
32872;SDS011;19224;52.462;16.898;2024-02-28T03:47:06;46.45;;;20.12;;
32872;SDS011;19224;52.462;16.898;2024-02-28T03:49:37;48.38;;;20.52;;
32872;SDS011;19224;52.462;16.898;2024-02-28T03:52:07;51.77;;;19.45;;
32872;SDS011;19224;52.462;16.898;2024-02-28T03:54:37;48.33;;;20.05;;
32872;SDS011;19224;52.462;16.898;2024-02-28T03:57:09;49.55;;;20.52;;
32872;SDS011;19224;52.462;16.898;2024-02-28T03:59:40;43.25;;;19.25;;
32872;SDS011;19224;52.462;16.898;2024-02-28T04:02:11;44.67;;;18.07;;
32872;SDS011;19224;52.462;16.898;2024-02-28T04:04:41;41.10;;;17.55;;
32872;SDS011;19224;52.462;16.898;2024-02-28T04:07:13;41.33;;;17.57;;
32872;SDS011;19224;52.462;16.898;2024-02-28T04:09:44;35.25;;;15.68;;
32872;SDS011;19224;52.462;16.898;2024-02-28T04:12:14;39.53;;;16.75;;
32872;SDS011;19224;52.462;16.898;2024-02-28T04:14:45;36.68;;;16.40;;
32872;SDS011;19224;52.462;16.898;2024-02-28T04:17:17;39.30;;;16.85;;
32872;SDS011;19224;52.462;16.898;2024-02-28T04:19:48;42.88;;;17.35;;
32872;SDS011;19224;52.462;16.898;2024-02-28T04:22:18;38.58;;;15.60;;
32872;SDS011;19224;52.462;16.898;2024-02-28T04:24:48;40.90;;;16.60;;
32872;SDS011;19224;52.462;16.898;2024-02-28T04:27:18;37.42;;;16.77;;
32872;SDS011;19224;52.462;16.898;2024-02-28T04:29:49;40.50;;;16.30;;
32872;SDS011;19224;52.462;16.898;2024-02-28T04:32:19;39.27;;;17.30;;
32872;SDS011;19224;52.462;16.898;2024-02-28T04:34:49;41.42;;;16.40;;
32872;SDS011;19224;52.462;16.898;2024-02-28T04:37:19;40.92;;;17.12;;
32872;SDS011;19224;52.462;16.898;2024-02-28T04:39:50;41.98;;;17.32;;
32872;SDS011;19224;52.462;16.898;2024-02-28T04:42:21;42.03;;;16.73;;
32872;SDS011;19224;52.462;16.898;2024-02-28T04:44:51;38.45;;;16.20;;
32872;SDS011;19224;52.462;16.898;2024-02-28T04:47:21;43.08;;;17.87;;
32872;SDS011;19224;52.462;16.898;2024-02-28T04:49:51;42.80;;;18.25;;
32872;SDS011;19224;52.462;16.898;2024-02-28T04:52:22;45.75;;;18.12;;
32872;SDS011;19224;52.462;16.898;2024-02-28T04:54:56;39.18;;;17.98;;
32872;SDS011;19224;52.462;16.898;2024-02-28T04:57:26;43.13;;;18.05;;
32872;SDS011;19224;52.462;16.898;2024-02-28T04:59:56;48.45;;;18.75;;
32872;SDS011;19224;52.462;16.898;2024-02-28T05:02:27;46.53;;;19.60;;
32872;SDS011;19224;52.462;16.898;2024-02-28T05:04:57;46.42;;;18.55;;
32872;SDS011;19224;52.462;16.898;2024-02-28T05:07:28;44.27;;;18.50;;
32872;SDS011;19224;52.462;16.898;2024-02-28T05:10:08;41.68;;;17.95;;
32872;SDS011;19224;52.462;16.898;2024-02-28T05:12:39;44.85;;;18.67;;
32872;SDS011;19224;52.462;16.898;2024-02-28T05:15:10;42.10;;;17.90;;
32872;SDS011;19224;52.462;16.898;2024-02-28T05:17:40;43.28;;;19.20;;
32872;SDS011;19224;52.462;16.898;2024-02-28T05:20:11;42.20;;;18.05;;
32872;SDS011;19224;52.462;16.898;2024-02-28T05:22:41;41.40;;;17.37;;
32872;SDS011;19224;52.462;16.898;2024-02-28T05:25:16;36.75;;;16.85;;
32872;SDS011;19224;52.462;16.898;2024-02-28T05:27:46;42.45;;;18.00;;
32872;SDS011;19224;52.462;16.898;2024-02-28T05:30:16;38.05;;;16.32;;
32872;SDS011;19224;52.462;16.898;2024-02-28T05:32:47;36.90;;;16.50;;
32872;SDS011;19224;52.462;16.898;2024-02-28T05:35:17;34.95;;;15.90;;
32872;SDS011;19224;52.462;16.898;2024-02-28T05:37:52;35.58;;;16.02;;
32872;SDS011;19224;52.462;16.898;2024-02-28T05:40:25;37.13;;;16.82;;
32872;SDS011;19224;52.462;16.898;2024-02-28T05:42:56;39.20;;;17.92;;
32872;SDS011;19224;52.462;16.898;2024-02-28T05:45:27;35.38;;;16.65;;
32872;SDS011;19224;52.462;16.898;2024-02-28T05:47:57;35.50;;;16.97;;
32872;SDS011;19224;52.462;16.898;2024-02-28T05:50:27;32.28;;;15.63;;
32872;SDS011;19224;52.462;16.898;2024-02-28T05:52:59;30.65;;;14.90;;
32872;SDS011;19224;52.462;16.898;2024-02-28T05:55:30;39.23;;;17.50;;
32872;SDS011;19224;52.462;16.898;2024-02-28T05:58:00;29.92;;;14.75;;
32872;SDS011;19224;52.462;16.898;2024-02-28T06:00:38;31.33;;;15.13;;
32872;SDS011;19224;52.462;16.898;2024-02-28T06:03:08;36.73;;;16.27;;
32872;SDS011;19224;52.462;16.898;2024-02-28T06:05:38;31.45;;;15.15;;
32872;SDS011;19224;52.462;16.898;2024-02-28T06:08:09;33.63;;;14.43;;
32872;SDS011;19224;52.462;16.898;2024-02-28T06:10:41;37.75;;;14.40;;
32872;SDS011;19224;52.462;16.898;2024-02-28T06:13:13;41.58;;;14.13;;
32872;SDS011;19224;52.462;16.898;2024-02-28T06:15:43;29.67;;;14.58;;
32872;SDS011;19224;52.462;16.898;2024-02-28T06:18:14;33.23;;;13.78;;
32872;SDS011;19224;52.462;16.898;2024-02-28T06:20:44;30.55;;;14.58;;
32872;SDS011;19224;52.462;16.898;2024-02-28T06:23:14;44.88;;;17.60;;
32872;SDS011;19224;52.462;16.898;2024-02-28T06:25:44;46.95;;;16.95;;
32872;SDS011;19224;52.462;16.898;2024-02-28T06:28:14;57.43;;;20.12;;
32872;SDS011;19224;52.462;16.898;2024-02-28T06:30:45;57.20;;;20.08;;
32872;SDS011;19224;52.462;16.898;2024-02-28T06:33:16;63.78;;;21.73;;
32872;SDS011;19224;52.462;16.898;2024-02-28T06:35:46;60.03;;;23.83;;
32872;SDS011;19224;52.462;16.898;2024-02-28T06:38:17;47.85;;;19.20;;
32872;SDS011;19224;52.462;16.898;2024-02-28T06:40:47;42.05;;;16.48;;
32872;SDS011;19224;52.462;16.898;2024-02-28T06:43:17;41.73;;;16.27;;
32872;SDS011;19224;52.462;16.898;2024-02-28T06:45:47;42.50;;;17.57;;
32872;SDS011;19224;52.462;16.898;2024-02-28T06:48:18;36.17;;;17.20;;
32872;SDS011;19224;52.462;16.898;2024-02-28T06:50:48;38.30;;;17.00;;
32872;SDS011;19224;52.462;16.898;2024-02-28T06:53:18;34.90;;;16.50;;
32872;SDS011;19224;52.462;16.898;2024-02-28T06:55:48;30.95;;;15.58;;
32872;SDS011;19224;52.462;16.898;2024-02-28T06:58:19;30.95;;;15.45;;
32872;SDS011;19224;52.462;16.898;2024-02-28T07:00:51;31.52;;;16.87;;
32872;SDS011;19224;52.462;16.898;2024-02-28T07:03:21;30.23;;;14.55;;
32872;SDS011;19224;52.462;16.898;2024-02-28T07:05:52;25.60;;;13.98;;
32872;SDS011;19224;52.462;16.898;2024-02-28T07:08:23;27.90;;;13.95;;
32872;SDS011;19224;52.462;16.898;2024-02-28T07:10:54;26.25;;;13.53;;
32872;SDS011;19224;52.462;16.898;2024-02-28T07:13:25;29.98;;;15.38;;
32872;SDS011;19224;52.462;16.898;2024-02-28T07:15:55;26.70;;;14.43;;
32872;SDS011;19224;52.462;16.898;2024-02-28T07:18:26;26.25;;;14.30;;
32872;SDS011;19224;52.462;16.898;2024-02-28T07:20:57;31.82;;;15.93;;
32872;SDS011;19224;52.462;16.898;2024-02-28T07:23:28;31.00;;;15.45;;
32872;SDS011;19224;52.462;16.898;2024-02-28T07:25:58;30.20;;;16.15;;
32872;SDS011;19224;52.462;16.898;2024-02-28T07:28:29;30.60;;;16.52;;
32872;SDS011;19224;52.462;16.898;2024-02-28T07:31:00;34.95;;;17.50;;
32872;SDS011;19224;52.462;16.898;2024-02-28T07:33:31;37.95;;;17.95;;
32872;SDS011;19224;52.462;16.898;2024-02-28T07:36:03;38.08;;;18.75;;
32872;SDS011;19224;52.462;16.898;2024-02-28T07:38:35;40.17;;;19.50;;
32872;SDS011;19224;52.462;16.898;2024-02-28T07:41:05;38.13;;;19.82;;
32872;SDS011;19224;52.462;16.898;2024-02-28T07:43:35;45.33;;;21.50;;
32872;SDS011;19224;52.462;16.898;2024-02-28T07:46:09;44.25;;;22.22;;
32872;SDS011;19224;52.462;16.898;2024-02-28T07:48:40;53.28;;;22.90;;
32872;SDS011;19224;52.462;16.898;2024-02-28T07:51:11;52.08;;;24.37;;
32872;SDS011;19224;52.462;16.898;2024-02-28T07:53:42;45.43;;;23.55;;
32872;SDS011;19224;52.462;16.898;2024-02-28T07:56:17;47.60;;;23.18;;
32872;SDS011;19224;52.462;16.898;2024-02-28T07:58:49;49.88;;;24.57;;
32872;SDS011;19224;52.462;16.898;2024-02-28T08:01:19;45.03;;;22.70;;
32872;SDS011;19224;52.462;16.898;2024-02-28T08:03:50;48.85;;;23.05;;
32872;SDS011;19224;52.462;16.898;2024-02-28T08:06:21;45.73;;;21.95;;
32872;SDS011;19224;52.462;16.898;2024-02-28T08:08:52;49.30;;;22.07;;
32872;SDS011;19224;52.462;16.898;2024-02-28T08:11:22;51.15;;;21.95;;
32872;SDS011;19224;52.462;16.898;2024-02-28T08:13:52;46.73;;;21.95;;
32872;SDS011;19224;52.462;16.898;2024-02-28T08:16:23;44.70;;;21.12;;
32872;SDS011;19224;52.462;16.898;2024-02-28T08:18:53;48.42;;;20.72;;
32872;SDS011;19224;52.462;16.898;2024-02-28T08:21:24;38.00;;;16.57;;
32872;SDS011;19224;52.462;16.898;2024-02-28T08:23:55;32.83;;;15.40;;
32872;SDS011;19224;52.462;16.898;2024-02-28T08:26:31;28.32;;;13.90;;
32872;SDS011;19224;52.462;16.898;2024-02-28T08:29:02;31.93;;;13.08;;
32872;SDS011;19224;52.462;16.898;2024-02-28T08:31:32;31.93;;;12.93;;
32872;SDS011;19224;52.462;16.898;2024-02-28T08:34:06;25.92;;;13.25;;
32872;SDS011;19224;52.462;16.898;2024-02-28T08:36:36;26.65;;;13.35;;
32872;SDS011;19224;52.462;16.898;2024-02-28T08:39:08;22.73;;;12.90;;
32872;SDS011;19224;52.462;16.898;2024-02-28T08:41:39;26.55;;;12.50;;
32872;SDS011;19224;52.462;16.898;2024-02-28T08:44:09;18.70;;;10.75;;
32872;SDS011;19224;52.462;16.898;2024-02-28T08:46:40;22.10;;;11.90;;
32872;SDS011;19224;52.462;16.898;2024-02-28T08:49:10;23.05;;;12.07;;
32872;SDS011;19224;52.462;16.898;2024-02-28T08:51:40;21.45;;;11.05;;
32872;SDS011;19224;52.462;16.898;2024-02-28T08:54:16;27.05;;;11.73;;
32872;SDS011;19224;52.462;16.898;2024-02-28T08:56:54;20.85;;;11.75;;
32872;SDS011;19224;52.462;16.898;2024-02-28T08:59:24;21.23;;;11.05;;
32872;SDS011;19224;52.462;16.898;2024-02-28T09:01:54;22.17;;;11.83;;
32872;SDS011;19224;52.462;16.898;2024-02-28T09:04:25;19.48;;;11.18;;
32872;SDS011;19224;52.462;16.898;2024-02-28T09:06:57;20.10;;;11.20;;
32872;SDS011;19224;52.462;16.898;2024-02-28T09:09:27;19.85;;;11.22;;
32872;SDS011;19224;52.462;16.898;2024-02-28T09:12:01;23.20;;;11.15;;
32872;SDS011;19224;52.462;16.898;2024-02-28T09:14:32;17.90;;;10.38;;
32872;SDS011;19224;52.462;16.898;2024-02-28T09:17:24;19.87;;;9.90;;
32872;SDS011;19224;52.462;16.898;2024-02-28T09:20:03;18.70;;;9.95;;
32872;SDS011;19224;52.462;16.898;2024-02-28T09:22:33;16.15;;;9.75;;
32872;SDS011;19224;52.462;16.898;2024-02-28T09:25:05;16.65;;;9.13;;
32872;SDS011;19224;52.462;16.898;2024-02-28T09:27:37;17.48;;;9.53;;
32872;SDS011;19224;52.462;16.898;2024-02-28T09:30:15;20.45;;;9.93;;
32872;SDS011;19224;52.462;16.898;2024-02-28T09:32:48;18.98;;;10.80;;
32872;SDS011;19224;52.462;16.898;2024-02-28T09:35:23;19.10;;;11.53;;
32872;SDS011;19224;52.462;16.898;2024-02-28T09:37:52;17.95;;;10.55;;
32872;SDS011;19224;52.462;16.898;2024-02-28T09:40:22;19.23;;;10.85;;
32872;SDS011;19224;52.462;16.898;2024-02-28T09:43:00;19.70;;;11.05;;
32872;SDS011;19224;52.462;16.898;2024-02-28T09:45:33;18.62;;;9.90;;
32872;SDS011;19224;52.462;16.898;2024-02-28T09:48:07;20.43;;;10.58;;
32872;SDS011;19224;52.462;16.898;2024-02-28T09:50:51;19.77;;;11.50;;
32872;SDS011;19224;52.462;16.898;2024-02-28T09:53:23;24.23;;;11.35;;
32872;SDS011;19224;52.462;16.898;2024-02-28T09:55:55;29.40;;;12.95;;
32872;SDS011;19224;52.462;16.898;2024-02-28T09:58:31;19.57;;;11.05;;
32872;SDS011;19224;52.462;16.898;2024-02-28T10:01:02;22.10;;;11.55;;
32872;SDS011;19224;52.462;16.898;2024-02-28T10:03:44;20.12;;;11.05;;
32872;SDS011;19224;52.462;16.898;2024-02-28T10:06:21;26.00;;;12.03;;
32872;SDS011;19224;52.462;16.898;2024-02-28T10:08:55;23.73;;;10.82;;
32872;SDS011;19224;52.462;16.898;2024-02-28T10:11:26;21.45;;;11.80;;
32872;SDS011;19224;52.462;16.898;2024-02-28T10:14:01;25.10;;;12.18;;
32872;SDS011;19224;52.462;16.898;2024-02-28T10:16:35;23.07;;;11.05;;
32872;SDS011;19224;52.462;16.898;2024-02-28T10:19:08;23.38;;;11.65;;
32872;SDS011;19224;52.462;16.898;2024-02-28T10:21:38;21.33;;;11.57;;
32872;SDS011;19224;52.462;16.898;2024-02-28T10:24:15;23.62;;;11.57;;
32872;SDS011;19224;52.462;16.898;2024-02-28T10:26:46;21.52;;;11.25;;
32872;SDS011;19224;52.462;16.898;2024-02-28T10:29:24;25.15;;;11.85;;
32872;SDS011;19224;52.462;16.898;2024-02-28T10:31:52;26.23;;;10.88;;
32872;SDS011;19224;52.462;16.898;2024-02-28T10:34:31;21.62;;;11.88;;
32872;SDS011;19224;52.462;16.898;2024-02-28T10:36:58;19.10;;;10.08;;
32872;SDS011;19224;52.462;16.898;2024-02-28T10:39:32;21.77;;;10.63;;
32872;SDS011;19224;52.462;16.898;2024-02-28T10:42:05;18.48;;;10.30;;
32872;SDS011;19224;52.462;16.898;2024-02-28T10:44:35;20.68;;;10.15;;
32872;SDS011;19224;52.462;16.898;2024-02-28T10:47:07;20.32;;;9.93;;
32872;SDS011;19224;52.462;16.898;2024-02-28T10:49:39;17.17;;;8.88;;
32872;SDS011;19224;52.462;16.898;2024-02-28T10:52:12;14.10;;;8.35;;
32872;SDS011;19224;52.462;16.898;2024-02-28T10:54:46;13.08;;;7.97;;
32872;SDS011;19224;52.462;16.898;2024-02-28T10:57:24;14.38;;;7.87;;
32872;SDS011;19224;52.462;16.898;2024-02-28T10:59:55;13.22;;;7.53;;
32872;SDS011;19224;52.462;16.898;2024-02-28T11:02:32;12.43;;;7.50;;
32872;SDS011;19224;52.462;16.898;2024-02-28T11:05:02;12.70;;;7.83;;
32872;SDS011;19224;52.462;16.898;2024-02-28T11:07:33;12.20;;;7.37;;
32872;SDS011;19224;52.462;16.898;2024-02-28T11:10:05;14.28;;;8.40;;
32872;SDS011;19224;52.462;16.898;2024-02-28T11:12:38;16.70;;;7.30;;
32872;SDS011;19224;52.462;16.898;2024-02-28T11:15:15;12.05;;;7.60;;
32872;SDS011;19224;52.462;16.898;2024-02-28T11:17:46;12.40;;;6.47;;
32872;SDS011;19224;52.462;16.898;2024-02-28T11:20:17;14.38;;;7.72;;
32872;SDS011;19224;52.462;16.898;2024-02-28T11:22:56;13.58;;;7.47;;
32872;SDS011;19224;52.462;16.898;2024-02-28T11:25:26;15.95;;;8.05;;
32872;SDS011;19224;52.462;16.898;2024-02-28T11:28:03;12.90;;;7.80;;
32872;SDS011;19224;52.462;16.898;2024-02-28T11:30:43;16.50;;;7.45;;
32872;SDS011;19224;52.462;16.898;2024-02-28T11:33:13;20.65;;;9.00;;
32872;SDS011;19224;52.462;16.898;2024-02-28T11:35:54;12.33;;;6.75;;
32872;SDS011;19224;52.462;16.898;2024-02-28T11:38:26;16.42;;;7.35;;
32872;SDS011;19224;52.462;16.898;2024-02-28T11:40:56;13.55;;;7.70;;
32872;SDS011;19224;52.462;16.898;2024-02-28T11:43:27;14.33;;;7.53;;
32872;SDS011;19224;52.462;16.898;2024-02-28T11:46:12;13.22;;;7.85;;
32872;SDS011;19224;52.462;16.898;2024-02-28T11:48:44;15.13;;;8.15;;
32872;SDS011;19224;52.462;16.898;2024-02-28T11:51:14;21.85;;;8.60;;
32872;SDS011;19224;52.462;16.898;2024-02-28T11:53:46;16.62;;;8.60;;
32872;SDS011;19224;52.462;16.898;2024-02-28T11:56:18;14.43;;;8.15;;
32872;SDS011;19224;52.462;16.898;2024-02-28T11:58:54;17.50;;;8.68;;
32872;SDS011;19224;52.462;16.898;2024-02-28T12:01:36;12.18;;;7.25;;
32872;SDS011;19224;52.462;16.898;2024-02-28T12:04:11;14.13;;;7.47;;
32872;SDS011;19224;52.462;16.898;2024-02-28T12:06:42;12.68;;;7.17;;
32872;SDS011;19224;52.462;16.898;2024-02-28T12:09:12;13.20;;;7.62;;
32872;SDS011;19224;52.462;16.898;2024-02-28T12:11:43;13.58;;;7.55;;
32872;SDS011;19224;52.462;16.898;2024-02-28T12:14:15;14.15;;;7.85;;
32872;SDS011;19224;52.462;16.898;2024-02-28T12:16:46;11.78;;;7.28;;
32872;SDS011;19224;52.462;16.898;2024-02-28T12:19:17;13.90;;;7.35;;
32872;SDS011;19224;52.462;16.898;2024-02-28T12:21:49;11.90;;;7.10;;
32872;SDS011;19224;52.462;16.898;2024-02-28T12:24:20;14.53;;;7.58;;
32872;SDS011;19224;52.462;16.898;2024-02-28T12:26:52;13.88;;;7.45;;
32872;SDS011;19224;52.462;16.898;2024-02-28T12:29:22;12.28;;;7.37;;
32872;SDS011;19224;52.462;16.898;2024-02-28T12:31:52;13.08;;;7.35;;
32872;SDS011;19224;52.462;16.898;2024-02-28T12:34:23;13.08;;;7.62;;
32872;SDS011;19224;52.462;16.898;2024-02-28T12:36:57;14.05;;;7.30;;
32872;SDS011;19224;52.462;16.898;2024-02-28T12:39:27;13.50;;;7.75;;
32872;SDS011;19224;52.462;16.898;2024-02-28T12:42:01;18.17;;;8.68;;
32872;SDS011;19224;52.462;16.898;2024-02-28T12:44:32;17.73;;;8.40;;
32872;SDS011;19224;52.462;16.898;2024-02-28T12:47:05;16.40;;;8.43;;
32872;SDS011;19224;52.462;16.898;2024-02-28T12:49:37;18.37;;;8.88;;
32872;SDS011;19224;52.462;16.898;2024-02-28T12:52:09;15.70;;;8.75;;
32872;SDS011;19224;52.462;16.898;2024-02-28T12:54:40;16.37;;;8.13;;
32872;SDS011;19224;52.462;16.898;2024-02-28T12:57:12;14.38;;;8.18;;
32872;SDS011;19224;52.462;16.898;2024-02-28T12:59:45;15.18;;;8.28;;
32872;SDS011;19224;52.462;16.898;2024-02-28T13:02:16;20.10;;;8.93;;
32872;SDS011;19224;52.462;16.898;2024-02-28T13:04:47;13.28;;;7.58;;
32872;SDS011;19224;52.462;16.898;2024-02-28T13:07:28;11.70;;;6.28;;
32872;SDS011;19224;52.462;16.898;2024-02-28T13:10:01;16.57;;;7.25;;
32872;SDS011;19224;52.462;16.898;2024-02-28T13:12:27;15.98;;;7.40;;
32872;SDS011;19224;52.462;16.898;2024-02-28T13:14:58;12.68;;;7.40;;
32872;SDS011;19224;52.462;16.898;2024-02-28T13:17:28;12.30;;;6.95;;
32872;SDS011;19224;52.462;16.898;2024-02-28T13:19:59;16.27;;;7.55;;
32872;SDS011;19224;52.462;16.898;2024-02-28T13:22:31;15.95;;;7.40;;
32872;SDS011;19224;52.462;16.898;2024-02-28T13:25:01;17.60;;;7.53;;
32872;SDS011;19224;52.462;16.898;2024-02-28T13:27:32;14.33;;;7.47;;
32872;SDS011;19224;52.462;16.898;2024-02-28T13:30:04;13.60;;;7.30;;
32872;SDS011;19224;52.462;16.898;2024-02-28T13:32:35;14.10;;;7.28;;
32872;SDS011;19224;52.462;16.898;2024-02-28T13:35:06;12.35;;;7.15;;
32872;SDS011;19224;52.462;16.898;2024-02-28T13:37:38;13.13;;;7.97;;
32872;SDS011;19224;52.462;16.898;2024-02-28T13:40:08;14.98;;;7.42;;
32872;SDS011;19224;52.462;16.898;2024-02-28T13:42:40;16.15;;;8.55;;
32872;SDS011;19224;52.462;16.898;2024-02-28T13:45:12;21.50;;;10.85;;
32872;SDS011;19224;52.462;16.898;2024-02-28T13:47:42;23.45;;;11.45;;
32872;SDS011;19224;52.462;16.898;2024-02-28T13:50:13;25.40;;;11.97;;
32872;SDS011;19224;52.462;16.898;2024-02-28T13:52:46;23.05;;;10.65;;
32872;SDS011;19224;52.462;16.898;2024-02-28T13:55:16;20.92;;;10.68;;
32872;SDS011;19224;52.462;16.898;2024-02-28T13:57:46;20.00;;;11.18;;
32872;SDS011;19224;52.462;16.898;2024-02-28T14:00:17;24.65;;;11.95;;
32872;SDS011;19224;52.462;16.898;2024-02-28T14:02:48;16.80;;;9.95;;
32872;SDS011;19224;52.462;16.898;2024-02-28T14:05:23;16.97;;;9.63;;
32872;SDS011;19224;52.462;16.898;2024-02-28T14:07:56;17.50;;;10.23;;
32872;SDS011;19224;52.462;16.898;2024-02-28T14:10:28;18.75;;;10.70;;
32872;SDS011;19224;52.462;16.898;2024-02-28T14:13:05;20.08;;;9.73;;
32872;SDS011;19224;52.462;16.898;2024-02-28T14:15:36;19.95;;;10.08;;
32872;SDS011;19224;52.462;16.898;2024-02-28T14:18:08;19.10;;;10.50;;
32872;SDS011;19224;52.462;16.898;2024-02-28T14:20:40;17.57;;;9.10;;
32872;SDS011;19224;52.462;16.898;2024-02-28T14:23:14;17.42;;;9.95;;
32872;SDS011;19224;52.462;16.898;2024-02-28T14:25:45;22.35;;;10.53;;
32872;SDS011;19224;52.462;16.898;2024-02-28T14:28:15;20.32;;;10.25;;
32872;SDS011;19224;52.462;16.898;2024-02-28T14:30:47;26.75;;;12.18;;
32872;SDS011;19224;52.462;16.898;2024-02-28T14:33:18;36.73;;;17.52;;
32872;SDS011;19224;52.462;16.898;2024-02-28T14:35:49;42.08;;;18.37;;